sensor_id;sensor_type;location;lat;lon;timestamp;pressure;altitude;pressure_sealevel;temperature;humidity
4834;BME280;12895;51.064;7.028;2023-05-23T00:00:44;100825.66;;;17.58;69.15
4834;BME280;12895;51.064;7.028;2023-05-23T00:03:31;100826.78;;;17.44;69.35
4834;BME280;12895;51.064;7.028;2023-05-23T00:06:18;100818.72;;;17.35;69.55
4834;BME280;12895;51.064;7.028;2023-05-23T00:09:05;100820.00;;;17.29;69.69
4834;BME280;12895;51.064;7.028;2023-05-23T00:11:50;100817.03;;;17.21;69.86
4834;BME280;12895;51.064;7.028;2023-05-23T00:14:35;100813.50;;;17.15;69.99
4834;BME280;12895;51.064;7.028;2023-05-23T00:17:24;100820.44;;;17.03;70.25
4834;BME280;12895;51.064;7.028;2023-05-23T00:20:10;100810.56;;;16.97;70.46
4834;BME280;12895;51.064;7.028;2023-05-23T00:22:56;100817.44;;;16.90;70.55
4834;BME280;12895;51.064;7.028;2023-05-23T00:25:42;100826.09;;;16.92;70.57
4834;BME280;12895;51.064;7.028;2023-05-23T00:28:31;100826.09;;;16.92;70.27
4834;BME280;12895;51.064;7.028;2023-05-23T00:31:16;100828.06;;;16.97;69.97
4834;BME280;12895;51.064;7.028;2023-05-23T00:34:03;100821.94;;;17.04;70.17
4834;BME280;12895;51.064;7.028;2023-05-23T00:36:48;100816.84;;;17.08;69.76
4834;BME280;12895;51.064;7.028;2023-05-23T00:39:34;100834.59;;;17.11;69.85
4834;BME280;12895;51.064;7.028;2023-05-23T00:42:20;100828.50;;;17.12;69.86
4834;BME280;12895;51.064;7.028;2023-05-23T00:45:06;100834.56;;;17.16;69.85
4834;BME280;12895;51.064;7.028;2023-05-23T00:47:52;100832.56;;;17.11;70.11
4834;BME280;12895;51.064;7.028;2023-05-23T00:50:39;100836.34;;;17.14;70.13
4834;BME280;12895;51.064;7.028;2023-05-23T00:53:24;100832.81;;;17.13;70.10
4834;BME280;12895;51.064;7.028;2023-05-23T00:56:11;100831.53;;;17.14;70.29
4834;BME280;12895;51.064;7.028;2023-05-23T00:58:56;100837.34;;;17.16;70.08
4834;BME280;12895;51.064;7.028;2023-05-23T01:01:43;100838.63;;;17.15;70.29
4834;BME280;12895;51.064;7.028;2023-05-23T01:04:30;100843.44;;;17.15;70.19
4834;BME280;12895;51.064;7.028;2023-05-23T01:07:18;100844.69;;;17.19;70.19
4834;BME280;12895;51.064;7.028;2023-05-23T01:10:04;100842.16;;;17.21;70.00
4834;BME280;12895;51.064;7.028;2023-05-23T01:12:57;100846.94;;;17.26;69.80
4834;BME280;12895;51.064;7.028;2023-05-23T01:15:49;100853.53;;;17.29;69.85
4834;BME280;12895;51.064;7.028;2023-05-23T01:18:37;100850.69;;;17.34;69.76
4834;BME280;12895;51.064;7.028;2023-05-23T01:21:25;100853.50;;;17.40;69.43
4834;BME280;12895;51.064;7.028;2023-05-23T01:24:29;100847.91;;;17.34;69.35
4834;BME280;12895;51.064;7.028;2023-05-23T01:27:23;100852.28;;;17.24;67.64
4834;BME280;12895;51.064;7.028;2023-05-23T01:30:18;100841.41;;;17.21;67.54
4834;BME280;12895;51.064;7.028;2023-05-23T01:33:04;100854.84;;;17.22;67.24
4834;BME280;12895;51.064;7.028;2023-05-23T01:35:51;100852.56;;;17.21;67.18
4834;BME280;12895;51.064;7.028;2023-05-23T01:38:37;100849.53;;;17.19;67.09
4834;BME280;12895;51.064;7.028;2023-05-23T01:41:22;100847.78;;;17.10;67.14
4834;BME280;12895;51.064;7.028;2023-05-23T01:44:09;100860.78;;;17.08;67.55
4834;BME280;12895;51.064;7.028;2023-05-23T01:46:56;100862.28;;;17.09;67.10
4834;BME280;12895;51.064;7.028;2023-05-23T01:49:42;100855.47;;;17.04;66.99
4834;BME280;12895;51.064;7.028;2023-05-23T01:52:28;100869.72;;;16.95;66.90
4834;BME280;12895;51.064;7.028;2023-05-23T01:55:16;100869.22;;;16.91;66.64
4834;BME280;12895;51.064;7.028;2023-05-23T01:58:05;100867.69;;;16.90;66.82
4834;BME280;12895;51.064;7.028;2023-05-23T02:00:51;100866.19;;;16.89;66.87
4834;BME280;12895;51.064;7.028;2023-05-23T02:03:38;100870.50;;;16.90;66.64
4834;BME280;12895;51.064;7.028;2023-05-23T02:06:23;100879.38;;;16.94;66.76
4834;BME280;12895;51.064;7.028;2023-05-23T02:09:09;100880.91;;;16.95;66.94
4834;BME280;12895;51.064;7.028;2023-05-23T02:11:54;100873.56;;;16.92;66.63
4834;BME280;12895;51.064;7.028;2023-05-23T02:14:39;100875.84;;;16.88;66.60
4834;BME280;12895;51.064;7.028;2023-05-23T02:17:26;100871.78;;;16.89;66.43
4834;BME280;12895;51.064;7.028;2023-05-23T02:20:13;100881.44;;;16.88;66.13
4834;BME280;12895;51.064;7.028;2023-05-23T02:22:58;100875.56;;;16.92;66.20
4834;BME280;12895;51.064;7.028;2023-05-23T02:25:44;100868.75;;;16.87;66.34
4834;BME280;12895;51.064;7.028;2023-05-23T02:28:29;100872.81;;;16.86;66.77
4834;BME280;12895;51.064;7.028;2023-05-23T02:31:15;100878.41;;;16.86;66.50
4834;BME280;12895;51.064;7.028;2023-05-23T02:34:01;100878.13;;;16.90;66.40
4834;BME280;12895;51.064;7.028;2023-05-23T02:36:47;100885.03;;;16.83;66.55
4834;BME280;12895;51.064;7.028;2023-05-23T02:39:34;100887.53;;;16.81;66.70
4834;BME280;12895;51.064;7.028;2023-05-23T02:42:20;100890.63;;;16.72;67.05
4834;BME280;12895;51.064;7.028;2023-05-23T02:45:07;100885.31;;;16.69;67.59
4834;BME280;12895;51.064;7.028;2023-05-23T02:47:53;100886.56;;;16.73;67.38
4834;BME280;12895;51.064;7.028;2023-05-23T02:50:38;100889.59;;;16.75;67.66
4834;BME280;12895;51.064;7.028;2023-05-23T02:53:24;100892.13;;;16.84;67.37
4834;BME280;12895;51.064;7.028;2023-05-23T02:56:11;100883.53;;;16.71;67.70
4834;BME280;12895;51.064;7.028;2023-05-23T02:58:56;100886.59;;;16.63;67.83
4834;BME280;12895;51.064;7.028;2023-05-23T03:01:42;100888.13;;;16.58;68.14
4834;BME280;12895;51.064;7.028;2023-05-23T03:04:27;100879.00;;;16.58;68.24
4834;BME280;12895;51.064;7.028;2023-05-23T03:07:12;100881.00;;;16.63;68.01
4834;BME280;12895;51.064;7.028;2023-05-23T03:09:59;100878.75;;;16.61;68.20
4834;BME280;12895;51.064;7.028;2023-05-23T03:12:45;100877.50;;;16.57;68.30
4834;BME280;12895;51.064;7.028;2023-05-23T03:15:32;100881.81;;;16.58;68.33
4834;BME280;12895;51.064;7.028;2023-05-23T03:18:18;100890.19;;;16.58;68.43
4834;BME280;12895;51.064;7.028;2023-05-23T03:21:03;100897.03;;;16.57;68.71
4834;BME280;12895;51.064;7.028;2023-05-23T03:23:49;100894.25;;;16.57;68.46
4834;BME280;12895;51.064;7.028;2023-05-23T03:26:36;100890.19;;;16.58;68.39
4834;BME280;12895;51.064;7.028;2023-05-23T03:29:21;100891.69;;;16.59;68.47
4834;BME280;12895;51.064;7.028;2023-05-23T03:32:06;100895.75;;;16.58;68.63
4834;BME280;12895;51.064;7.028;2023-05-23T03:34:52;100893.44;;;16.62;68.83
4834;BME280;12895;51.064;7.028;2023-05-23T03:37:37;100900.81;;;16.65;68.71
4834;BME280;12895;51.064;7.028;2023-05-23T03:40:23;100898.53;;;16.63;68.90
4834;BME280;12895;51.064;7.028;2023-05-23T03:43:09;100905.66;;;16.59;69.18
4834;BME280;12895;51.064;7.028;2023-05-23T03:45:57;100904.88;;;16.53;69.45
4834;BME280;12895;51.064;7.028;2023-05-23T03:48:43;100905.91;;;16.50;69.67
4834;BME280;12895;51.064;7.028;2023-05-23T03:51:29;100901.84;;;16.51;69.81
4834;BME280;12895;51.064;7.028;2023-05-23T03:54:15;100901.88;;;16.40;69.98
4834;BME280;12895;51.064;7.028;2023-05-23T03:57:02;100904.44;;;16.38;70.14
4834;BME280;12895;51.064;7.028;2023-05-23T03:59:49;100898.84;;;16.38;70.27
4834;BME280;12895;51.064;7.028;2023-05-23T04:02:35;100904.91;;;16.42;69.98
4834;BME280;12895;51.064;7.028;2023-05-23T04:05:20;100913.31;;;16.36;70.05
4834;BME280;12895;51.064;7.028;2023-05-23T04:08:06;100904.91;;;16.42;69.97
4834;BME280;12895;51.064;7.028;2023-05-23T04:10:53;100912.53;;;16.47;69.86
4834;BME280;12895;51.064;7.028;2023-05-23T04:13:39;100907.44;;;16.51;70.11
4834;BME280;12895;51.064;7.028;2023-05-23T04:16:28;100915.09;;;16.45;69.73
4834;BME280;12895;51.064;7.028;2023-05-23T04:19:16;100928.03;;;16.37;69.39
4834;BME280;12895;51.064;7.028;2023-05-23T04:22:02;100927.75;;;16.35;69.11
4834;BME280;12895;51.064;7.028;2023-05-23T04:24:47;100937.91;;;16.38;69.17
4834;BME280;12895;51.064;7.028;2023-05-23T04:27:32;100928.75;;;16.43;69.01
4834;BME280;12895;51.064;7.028;2023-05-23T04:30:18;100937.88;;;16.49;68.28
4834;BME280;12895;51.064;7.028;2023-05-23T04:33:05;100950.56;;;16.44;68.92
4834;BME280;12895;51.064;7.028;2023-05-23T04:35:50;100932.56;;;16.45;69.03
4834;BME280;12895;51.064;7.028;2023-05-23T04:38:37;100941.72;;;16.40;69.07
4834;BME280;12895;51.064;7.028;2023-05-23T04:41:24;100945.00;;;16.39;69.32
4834;BME280;12895;51.064;7.028;2023-05-23T04:44:15;100950.31;;;16.26;70.14
4834;BME280;12895;51.064;7.028;2023-05-23T04:47:07;100946.00;;;16.25;70.66
4834;BME280;12895;51.064;7.028;2023-05-23T04:50:11;100953.59;;;16.30;70.56
4834;BME280;12895;51.064;7.028;2023-05-23T04:52:58;100950.81;;;16.30;70.31
4834;BME280;12895;51.064;7.028;2023-05-23T04:55:44;100946.25;;;16.32;70.49
4834;BME280;12895;51.064;7.028;2023-05-23T04:58:34;100957.16;;;16.36;70.30
4834;BME280;12895;51.064;7.028;2023-05-23T05:01:22;100956.66;;;16.32;70.79
4834;BME280;12895;51.064;7.028;2023-05-23T05:04:08;100957.66;;;16.34;71.03
4834;BME280;12895;51.064;7.028;2023-05-23T05:06:55;100956.66;;;16.37;71.00
4834;BME280;12895;51.064;7.028;2023-05-23T05:09:40;100960.94;;;16.33;70.70
4834;BME280;12895;51.064;7.028;2023-05-23T05:12:28;100959.94;;;16.36;70.69
4834;BME280;12895;51.064;7.028;2023-05-23T05:15:13;100954.41;;;16.41;70.41
4834;BME280;12895;51.064;7.028;2023-05-23T05:18:02;100954.66;;;16.38;70.39
4834;BME280;12895;51.064;7.028;2023-05-23T05:20:48;100961.22;;;16.35;70.62
4834;BME280;12895;51.064;7.028;2023-05-23T05:23:35;100960.97;;;16.38;70.22
4834;BME280;12895;51.064;7.028;2023-05-23T05:26:20;100969.31;;;16.33;70.47
4834;BME280;12895;51.064;7.028;2023-05-23T05:29:07;100973.41;;;16.43;70.37
4834;BME280;12895;51.064;7.028;2023-05-23T05:31:53;100971.88;;;16.42;70.10
4834;BME280;12895;51.064;7.028;2023-05-23T05:34:38;100977.97;;;16.46;70.15
4834;BME280;12895;51.064;7.028;2023-05-23T05:37:24;100971.88;;;16.42;70.02
4834;BME280;12895;51.064;7.028;2023-05-23T05:40:11;100973.66;;;16.39;69.72
4834;BME280;12895;51.064;7.028;2023-05-23T05:42:59;100979.47;;;16.36;70.05
4834;BME280;12895;51.064;7.028;2023-05-23T05:45:45;100990.38;;;16.39;70.14
4834;BME280;12895;51.064;7.028;2023-05-23T05:48:31;100987.63;;;16.45;69.98
4834;BME280;12895;51.064;7.028;2023-05-23T05:51:21;100989.63;;;16.33;70.26
4834;BME280;12895;51.064;7.028;2023-05-23T05:54:06;100980.47;;;16.33;70.30
4834;BME280;12895;51.064;7.028;2023-05-23T05:56:53;100985.81;;;16.31;70.47
4834;BME280;12895;51.064;7.028;2023-05-23T05:59:39;100993.16;;;16.34;70.51
4834;BME280;12895;51.064;7.028;2023-05-23T06:02:25;100993.69;;;16.27;70.68
4834;BME280;12895;51.064;7.028;2023-05-23T06:05:10;100990.13;;;16.21;71.14
4834;BME280;12895;51.064;7.028;2023-05-23T06:07:56;100995.69;;;16.21;71.20
4834;BME280;12895;51.064;7.028;2023-05-23T06:10:41;100996.47;;;16.32;70.81
4834;BME280;12895;51.064;7.028;2023-05-23T06:13:28;100993.41;;;16.25;71.04
4834;BME280;12895;51.064;7.028;2023-05-23T06:16:13;100993.16;;;16.23;70.95
4834;BME280;12895;51.064;7.028;2023-05-23T06:18:59;100996.72;;;16.18;71.23
4834;BME280;12895;51.064;7.028;2023-05-23T06:21:46;101000.53;;;16.20;71.23
4834;BME280;12895;51.064;7.028;2023-05-23T06:24:32;100998.50;;;16.21;71.09
4834;BME280;12895;51.064;7.028;2023-05-23T06:27:18;101003.28;;;16.15;71.13
4834;BME280;12895;51.064;7.028;2023-05-23T06:30:06;100998.50;;;16.21;71.42
4834;BME280;12895;51.064;7.028;2023-05-23T06:32:51;100995.94;;;16.23;70.88
4834;BME280;12895;51.064;7.028;2023-05-23T06:35:36;101002.78;;;16.22;71.11
4834;BME280;12895;51.064;7.028;2023-05-23T06:38:22;101004.84;;;16.21;71.19
4834;BME280;12895;51.064;7.028;2023-05-23T06:41:07;101005.84;;;16.24;71.30
4834;BME280;12895;51.064;7.028;2023-05-23T06:43:54;101004.06;;;16.32;71.15
4834;BME280;12895;51.064;7.028;2023-05-23T06:46:44;101008.13;;;16.31;70.75
4834;BME280;12895;51.064;7.028;2023-05-23T06:49:29;101012.97;;;16.36;70.91
4834;BME280;12895;51.064;7.028;2023-05-23T06:52:15;101019.06;;;16.40;71.04
4834;BME280;12895;51.064;7.028;2023-05-23T06:55:02;101019.56;;;16.44;70.75
4834;BME280;12895;51.064;7.028;2023-05-23T06:57:48;101021.06;;;16.34;70.23
4834;BME280;12895;51.064;7.028;2023-05-23T07:00:35;101025.66;;;16.37;70.63
4834;BME280;12895;51.064;7.028;2023-05-23T07:03:38;101024.91;;;16.36;69.92
4834;BME280;12895;51.064;7.028;2023-05-23T07:06:26;101035.78;;;16.51;69.60
4834;BME280;12895;51.064;7.028;2023-05-23T07:09:11;101038.31;;;16.60;69.17
4834;BME280;12895;51.064;7.028;2023-05-23T07:11:57;101047.97;;;16.69;68.77
4834;BME280;12895;51.064;7.028;2023-05-23T07:14:43;101046.16;;;16.83;68.00
4834;BME280;12895;51.064;7.028;2023-05-23T07:17:28;101043.88;;;16.81;67.22
4834;BME280;12895;51.064;7.028;2023-05-23T07:20:15;101051.47;;;16.92;66.54
4834;BME280;12895;51.064;7.028;2023-05-23T07:23:02;101059.88;;;16.75;66.61
4834;BME280;12895;51.064;7.028;2023-05-23T07:25:47;101056.84;;;16.73;66.99
4834;BME280;12895;51.064;7.028;2023-05-23T07:28:42;101062.69;;;16.75;66.89
4834;BME280;12895;51.064;7.028;2023-05-23T07:31:28;101062.41;;;16.68;67.37
4834;BME280;12895;51.064;7.028;2023-05-23T07:34:16;101065.72;;;16.67;67.65
4834;BME280;12895;51.064;7.028;2023-05-23T07:37:10;101060.91;;;16.67;66.35
4834;BME280;12895;51.064;7.028;2023-05-23T07:40:00;101072.84;;;16.67;66.81
4834;BME280;12895;51.064;7.028;2023-05-23T07:42:45;101064.72;;;16.69;66.38
4834;BME280;12895;51.064;7.028;2023-05-23T07:45:30;101061.91;;;16.69;66.20
4834;BME280;12895;51.064;7.028;2023-05-23T07:48:17;101077.66;;;16.78;65.39
4834;BME280;12895;51.064;7.028;2023-05-23T07:51:03;101075.63;;;16.62;65.74
4834;BME280;12895;51.064;7.028;2023-05-23T07:53:50;101081.69;;;16.71;65.55
4834;BME280;12895;51.064;7.028;2023-05-23T07:56:38;101073.31;;;16.71;65.55
4834;BME280;12895;51.064;7.028;2023-05-23T07:59:24;101080.94;;;16.76;65.50
4834;BME280;12895;51.064;7.028;2023-05-23T08:02:10;101079.41;;;16.86;65.10
4834;BME280;12895;51.064;7.028;2023-05-23T08:04:56;101089.31;;;16.82;64.90
4834;BME280;12895;51.064;7.028;2023-05-23T08:07:42;101089.56;;;16.78;65.05
4834;BME280;12895;51.064;7.028;2023-05-23T08:10:29;101085.75;;;16.70;65.60
4834;BME280;12895;51.064;7.028;2023-05-23T08:13:22;101087.53;;;16.63;65.69
4834;BME280;12895;51.064;7.028;2023-05-23T08:16:28;101093.13;;;16.63;66.02
4834;BME280;12895;51.064;7.028;2023-05-23T08:19:13;101088.06;;;16.56;66.09
4834;BME280;12895;51.064;7.028;2023-05-23T08:21:59;101103.28;;;16.66;66.09
4834;BME280;12895;51.064;7.028;2023-05-23T08:24:44;101096.19;;;16.65;65.98
4834;BME280;12895;51.064;7.028;2023-05-23T08:27:31;101105.84;;;16.64;66.38
4834;BME280;12895;51.064;7.028;2023-05-23T08:30:22;101104.81;;;16.67;66.02
4834;BME280;12895;51.064;7.028;2023-05-23T08:33:09;101107.34;;;16.65;65.65
4834;BME280;12895;51.064;7.028;2023-05-23T08:35:56;101113.94;;;16.62;65.71
4834;BME280;12895;51.064;7.028;2023-05-23T08:38:41;101109.63;;;16.66;65.21
4834;BME280;12895;51.064;7.028;2023-05-23T08:41:38;101109.63;;;16.71;65.02
4834;BME280;12895;51.064;7.028;2023-05-23T08:44:28;101114.44;;;16.76;64.58
4834;BME280;12895;51.064;7.028;2023-05-23T08:47:18;101122.56;;;16.85;64.83
4834;BME280;12895;51.064;7.028;2023-05-23T08:50:11;101118.50;;;16.97;64.33
4834;BME280;12895;51.064;7.028;2023-05-23T08:52:57;101129.63;;;17.19;63.50
4834;BME280;12895;51.064;7.028;2023-05-23T08:55:45;101125.03;;;17.27;63.29
4834;BME280;12895;51.064;7.028;2023-05-23T08:58:31;101131.16;;;17.31;63.14
4834;BME280;12895;51.064;7.028;2023-05-23T09:01:19;101132.41;;;17.25;63.21
4834;BME280;12895;51.064;7.028;2023-05-23T09:04:08;101141.59;;;17.14;63.71
4834;BME280;12895;51.064;7.028;2023-05-23T09:07:04;101150.50;;;16.85;64.03
4834;BME280;12895;51.064;7.028;2023-05-23T09:09:50;101146.69;;;16.67;64.96
4834;BME280;12895;51.064;7.028;2023-05-23T09:12:36;101147.41;;;16.72;64.72
4834;BME280;12895;51.064;7.028;2023-05-23T09:15:21;101149.47;;;16.88;63.99
4834;BME280;12895;51.064;7.028;2023-05-23T09:18:08;101151.75;;;17.12;63.35
4834;BME280;12895;51.064;7.028;2023-05-23T09:20:54;101161.16;;;17.03;63.42
4834;BME280;12895;51.064;7.028;2023-05-23T09:23:40;101160.63;;;17.10;63.50
4834;BME280;12895;51.064;7.028;2023-05-23T09:26:26;101161.63;;;17.07;64.10
4834;BME280;12895;51.064;7.028;2023-05-23T09:29:13;101173.31;;;17.00;63.57
4834;BME280;12895;51.064;7.028;2023-05-23T09:32:09;101162.66;;;16.82;64.14
4834;BME280;12895;51.064;7.028;2023-05-23T09:34:58;101175.88;;;16.76;64.31
4834;BME280;12895;51.064;7.028;2023-05-23T09:37:46;101183.69;;;16.56;64.62
4834;BME280;12895;51.064;7.028;2023-05-23T09:40:32;101188.44;;;16.34;65.26
4834;BME280;12895;51.064;7.028;2023-05-23T09:43:20;101181.31;;;16.22;65.99
4834;BME280;12895;51.064;7.028;2023-05-23T09:46:10;101187.31;;;16.04;66.57
4834;BME280;12895;51.064;7.028;2023-05-23T09:48:56;101191.94;;;16.12;66.64
4834;BME280;12895;51.064;7.028;2023-05-23T09:51:56;101194.47;;;16.16;66.38
4834;BME280;12895;51.064;7.028;2023-05-23T09:54:41;101195.19;;;16.05;66.08
4834;BME280;12895;51.064;7.028;2023-05-23T09:57:27;101193.69;;;16.10;66.58
4834;BME280;12895;51.064;7.028;2023-05-23T10:00:13;101190.91;;;16.10;66.30
4834;BME280;12895;51.064;7.028;2023-05-23T10:03:07;101191.94;;;16.18;65.94
4834;BME280;12895;51.064;7.028;2023-05-23T10:05:56;101190.91;;;16.15;65.84
4834;BME280;12895;51.064;7.028;2023-05-23T10:08:50;101197.41;;;16.54;64.53
4834;BME280;12895;51.064;7.028;2023-05-23T10:14:57;101180.63;;;17.58;62.42
4834;BME280;12895;51.064;7.028;2023-05-23T10:17:52;101181.38;;;18.27;59.64
4834;BME280;12895;51.064;7.028;2023-05-23T10:20:42;101190.06;;;18.69;57.41
4834;BME280;12895;51.064;7.028;2023-05-23T10:23:28;101200.72;;;18.76;56.45
4834;BME280;12895;51.064;7.028;2023-05-23T10:26:15;101207.56;;;18.81;56.61
4834;BME280;12895;51.064;7.028;2023-05-23T10:29:01;101202.69;;;18.81;56.66
4834;BME280;12895;51.064;7.028;2023-05-23T10:31:48;101213.16;;;19.10;55.82
4834;BME280;12895;51.064;7.028;2023-05-23T10:34:38;101214.41;;;19.15;55.16
4834;BME280;12895;51.064;7.028;2023-05-23T10:37:30;101221.06;;;19.12;55.93
4834;BME280;12895;51.064;7.028;2023-05-23T10:40:23;101209.72;;;19.28;55.21
4834;BME280;12895;51.064;7.028;2023-05-23T10:43:19;101215.47;;;19.41;55.54
4834;BME280;12895;51.064;7.028;2023-05-23T10:46:07;101224.69;;;19.01;53.97
4834;BME280;12895;51.064;7.028;2023-05-23T10:48:54;101224.28;;;18.51;55.67
4834;BME280;12895;51.064;7.028;2023-05-23T10:51:40;101234.31;;;18.30;56.67
4834;BME280;12895;51.064;7.028;2023-05-23T10:54:33;101241.91;;;18.35;56.21
4834;BME280;12895;51.064;7.028;2023-05-23T10:57:20;101240.59;;;17.63;57.95
4834;BME280;12895;51.064;7.028;2023-05-23T11:00:11;101245.69;;;17.20;59.05
4834;BME280;12895;51.064;7.028;2023-05-23T11:02:59;101251.50;;;16.78;61.04
4834;BME280;12895;51.064;7.028;2023-05-23T11:05:46;101248.44;;;16.66;60.80
4834;BME280;12895;51.064;7.028;2023-05-23T11:08:37;101248.44;;;16.66;61.09
4834;BME280;12895;51.064;7.028;2023-05-23T11:11:50;101255.00;;;16.63;60.66
4834;BME280;12895;51.064;7.028;2023-05-23T11:14:52;101256.28;;;16.72;60.81
4834;BME280;12895;51.064;7.028;2023-05-23T11:17:49;101254.00;;;16.66;60.60
4834;BME280;12895;51.064;7.028;2023-05-23T11:20:36;101262.28;;;16.38;61.88
4834;BME280;12895;51.064;7.028;2023-05-23T11:23:38;101267.56;;;16.31;61.82
4834;BME280;12895;51.064;7.028;2023-05-23T11:26:30;101275.09;;;16.14;62.10
4834;BME280;12895;51.064;7.028;2023-05-23T11:29:16;101281.16;;;16.07;62.38
4834;BME280;12895;51.064;7.028;2023-05-23T11:32:09;101271.38;;;16.33;61.41
4834;BME280;12895;51.064;7.028;2023-05-23T11:34:58;101267.75;;;16.74;60.08
4834;BME280;12895;51.064;7.028;2023-05-23T11:37:43;101274.13;;;17.08;59.83
4834;BME280;12895;51.064;7.028;2023-05-23T11:40:30;101263.22;;;17.70;58.53
4834;BME280;12895;51.064;7.028;2023-05-23T11:43:16;101265.09;;;18.30;58.35
4834;BME280;12895;51.064;7.028;2023-05-23T11:46:07;101260.72;;;18.86;56.08
4834;BME280;12895;51.064;7.028;2023-05-23T11:48:52;101265.84;;;19.23;55.44
4834;BME280;12895;51.064;7.028;2023-05-23T11:51:38;101265.81;;;19.52;53.22
4834;BME280;12895;51.064;7.028;2023-05-23T11:54:23;101259.88;;;19.85;51.91
4834;BME280;12895;51.064;7.028;2023-05-23T11:57:09;101258.94;;;20.25;48.58
4834;BME280;12895;51.064;7.028;2023-05-23T11:59:57;101258.66;;;20.47;50.66
4834;BME280;12895;51.064;7.028;2023-05-23T12:02:43;101257.84;;;20.09;48.30
4834;BME280;12895;51.064;7.028;2023-05-23T12:05:30;101263.03;;;19.76;50.99
4834;BME280;12895;51.064;7.028;2023-05-23T12:08:16;101259.63;;;19.59;49.66
4834;BME280;12895;51.064;7.028;2023-05-23T12:11:02;101255.44;;;19.12;51.06
4834;BME280;12895;51.064;7.028;2023-05-23T12:13:48;101260.00;;;18.80;52.05
4834;BME280;12895;51.064;7.028;2023-05-23T12:16:33;101255.75;;;18.68;52.16
4834;BME280;12895;51.064;7.028;2023-05-23T12:19:20;101262.63;;;18.67;52.28
4834;BME280;12895;51.064;7.028;2023-05-23T12:22:06;101260.78;;;18.75;51.78
4834;BME280;12895;51.064;7.028;2023-05-23T12:24:56;101258.81;;;19.00;50.82
4834;BME280;12895;51.064;7.028;2023-05-23T12:27:41;101262.53;;;19.13;50.36
4834;BME280;12895;51.064;7.028;2023-05-23T12:30:27;101270.81;;;19.00;49.80
4834;BME280;12895;51.064;7.028;2023-05-23T12:33:13;101268.75;;;18.66;51.30
4834;BME280;12895;51.064;7.028;2023-05-23T12:35:58;101272.06;;;18.59;51.06
4834;BME280;12895;51.064;7.028;2023-05-23T12:38:43;101265.53;;;18.45;51.95
4834;BME280;12895;51.064;7.028;2023-05-23T12:41:31;101261.97;;;18.85;50.20
4834;BME280;12895;51.064;7.028;2023-05-23T12:44:16;101266.25;;;18.97;49.40
4834;BME280;12895;51.064;7.028;2023-05-23T12:47:02;101274.06;;;19.04;49.80
4834;BME280;12895;51.064;7.028;2023-05-23T12:49:47;101271.53;;;19.06;49.09
4834;BME280;12895;51.064;7.028;2023-05-23T12:52:32;101268.75;;;19.06;48.68
4834;BME280;12895;51.064;7.028;2023-05-23T12:55:19;101269.69;;;19.20;48.63
4834;BME280;12895;51.064;7.028;2023-05-23T12:58:06;101268.50;;;19.39;48.45
4834;BME280;12895;51.064;7.028;2023-05-23T13:00:51;101270.00;;;19.40;48.27
4834;BME280;12895;51.064;7.028;2023-05-23T13:03:36;101266.28;;;19.27;48.69
4834;BME280;12895;51.064;7.028;2023-05-23T13:06:21;101280.16;;;19.43;47.74
4834;BME280;12895;51.064;7.028;2023-05-23T13:09:07;101273.03;;;19.42;47.08
4834;BME280;12895;51.064;7.028;2023-05-23T13:11:53;101270.69;;;19.52;48.08
4834;BME280;12895;51.064;7.028;2023-05-23T13:14:40;101270.88;;;19.83;47.81
4834;BME280;12895;51.064;7.028;2023-05-23T13:17:25;101270.50;;;19.68;47.15
4834;BME280;12895;51.064;7.028;2023-05-23T13:20:11;101275.72;;;19.59;48.40
4834;BME280;12895;51.064;7.028;2023-05-23T13:22:57;101272.75;;;19.75;46.64
4834;BME280;12895;51.064;7.028;2023-05-23T13:25:43;101274.50;;;20.02;45.90
4834;BME280;12895;51.064;7.028;2023-05-23T13:28:29;101274.69;;;20.09;46.24
4834;BME280;12895;51.064;7.028;2023-05-23T13:31:15;101271.25;;;20.22;46.27
4834;BME280;12895;51.064;7.028;2023-05-23T13:34:01;101272.13;;;20.30;43.79
4834;BME280;12895;51.064;7.028;2023-05-23T13:36:46;101278.47;;;20.73;44.15
4834;BME280;12895;51.064;7.028;2023-05-23T13:39:31;101278.69;;;20.75;44.85
4834;BME280;12895;51.064;7.028;2023-05-23T13:42:16;101277.94;;;20.56;45.26
4834;BME280;12895;51.064;7.028;2023-05-23T13:45:01;101279.75;;;20.35;45.09
4834;BME280;12895;51.064;7.028;2023-05-23T13:47:49;101272.53;;;20.39;45.27
4834;BME280;12895;51.064;7.028;2023-05-23T13:50:34;101270.81;;;20.55;42.80
4834;BME280;12895;51.064;7.028;2023-05-23T13:53:20;101269.91;;;20.65;42.25
4834;BME280;12895;51.064;7.028;2023-05-23T13:56:05;101263.66;;;20.72;41.01
4834;BME280;12895;51.064;7.028;2023-05-23T13:58:50;101268.69;;;20.61;42.07
4834;BME280;12895;51.064;7.028;2023-05-23T14:01:35;101276.75;;;20.70;41.38
4834;BME280;12895;51.064;7.028;2023-05-23T14:04:22;101266.09;;;20.81;41.35
4834;BME280;12895;51.064;7.028;2023-05-23T14:07:07;101266.50;;;20.91;41.34
4834;BME280;12895;51.064;7.028;2023-05-23T14:09:53;101263.53;;;20.65;41.19
4834;BME280;12895;51.064;7.028;2023-05-23T14:12:38;101260.00;;;20.22;42.16
4834;BME280;12895;51.064;7.028;2023-05-23T14:15:25;101262.22;;;21.03;42.58
4834;BME280;12895;51.064;7.028;2023-05-23T14:18:10;101252.44;;;22.32;38.33
4834;BME280;12895;51.064;7.028;2023-05-23T14:20:57;101264.53;;;23.32;35.67
4834;BME280;12895;51.064;7.028;2023-05-23T14:23:45;101257.06;;;23.01;36.40
4834;BME280;12895;51.064;7.028;2023-05-23T14:26:30;101263.75;;;22.19;37.35
4834;BME280;12895;51.064;7.028;2023-05-23T14:29:15;101261.34;;;21.39;39.63
4834;BME280;12895;51.064;7.028;2023-05-23T14:32:01;101262.22;;;21.03;41.19
4834;BME280;12895;51.064;7.028;2023-05-23T14:34:47;101256.81;;;21.05;39.35
4834;BME280;12895;51.064;7.028;2023-05-23T14:37:33;101258.63;;;21.78;38.59
4834;BME280;12895;51.064;7.028;2023-05-23T14:40:18;101258.00;;;21.85;37.45
4834;BME280;12895;51.064;7.028;2023-05-23T14:43:03;101258.66;;;22.76;36.37
4834;BME280;12895;51.064;7.028;2023-05-23T14:45:49;101255.66;;;24.83;32.56
4834;BME280;12895;51.064;7.028;2023-05-23T14:48:34;101254.81;;;26.55;30.10